Varmdo — SMXZ — position and weather

sailwx.info

Track history (hours):
 
Tides and Currents Weather Stations Pressure Air Temp Water Temp Dewpoint Dewpoint Depression Visibility Wind Speed Wind Dir Waves Ship Positions

Varmdo

Last reported at 2015-Apr-30 11:32 UTC. Time now 2015-May-03 13:51 UTC.
Position N 59°21' E 018°15'.

Length 38 m; draft 2.5 m.

Type: Passenger vessel. MMSI: 265520390.

Date/timePositionNaut miles runAvg speedWind from/ knotsBaromVisibWave heightAir tempDewpointWater temp
2015-Apr-30 11:32N 59°21' E 018°15'5 5.5
2015-Apr-30 10:33N 59°20' E 018°05'0 0.0
2015-Apr-30 09:33N 59°20' E 018°05'0 0.0
2015-Apr-30 08:33N 59°20' E 018°05'5 5.2
2015-Apr-30 07:32N 59°21' E 018°14'1 0.0
2015-Apr-29 13:33N 59°21' E 018°15'5 5.1
2015-Apr-29 12:31N 59°20' E 018°05'0 0.0
2015-Apr-29 11:31N 59°20' E 018°05'0 0.0
2015-Apr-29 10:31N 59°20' E 018°05'0 0.2
2015-Apr-29 09:31N 59°20' E 018°05'0 0.0
2015-Apr-29 08:28N 59°20' E 018°05'0 0.0
2015-Apr-29 07:31N 59°20' E 018°05'0 0.0
2015-Apr-29 06:31N 59°20' E 018°05'0 0.0
2015-Apr-29 05:31N 59°20' E 018°05'0 0.0
2015-Apr-29 04:31N 59°20' E 018°05'0 0.0
2015-Apr-29 03:31N 59°20' E 018°05'0 0.0
2015-Apr-29 02:31N 59°20' E 018°05'0 0.0
2015-Apr-29 01:31N 59°20' E 018°05'0 0.0
2015-Apr-29 00:31N 59°20' E 018°05'0 0.0
2015-Apr-28 23:31N 59°20' E 018°05'0 0.0
2015-Apr-28 22:31N 59°20' E 018°05'0 0.0
2015-Apr-28 21:31N 59°20' E 018°05'0 0.0
2015-Apr-28 20:28N 59°20' E 018°05'0 0.0
2015-Apr-28 19:28N 59°20' E 018°05'0 0.0
2015-Apr-28 18:31N 59°20' E 018°05'0 0.0
2015-Apr-28 17:31N 59°20' E 018°05'0 0.0
2015-Apr-28 16:31N 59°20' E 018°05'0 0.0
2015-Apr-28 15:28N 59°20' E 018°05'0 0.0
2015-Apr-28 14:31N 59°20' E 018°05'0 0.0
2015-Apr-28 13:31N 59°20' E 018°05'0 0.0
2015-Apr-28 12:28N 59°20' E 018°05'0 0.0
2015-Apr-28 11:31N 59°20' E 018°05'0 0.0
2015-Apr-28 10:31N 59°20' E 018°05'0 0.0
2015-Apr-28 09:31N 59°20' E 018°05'0 0.0
2015-Apr-28 08:31N 59°20' E 018°05'0 0.0
2015-Apr-28 07:31N 59°20' E 018°05'0 0.0
2015-Apr-28 06:31N 59°20' E 018°05'0 0.0
2015-Apr-28 05:31N 59°20' E 018°05'0 0.0
2015-Apr-28 04:31N 59°20' E 018°05'0 0.0
2015-Apr-28 03:31N 59°20' E 018°05'0 0.0
2015-Apr-28 02:31N 59°20' E 018°05'0 0.0
2015-Apr-28 01:31N 59°20' E 018°05'0 0.0
2015-Apr-28 00:31N 59°20' E 018°05'0 0.0
2015-Apr-27 23:31N 59°20' E 018°05'0 0.0
2015-Apr-27 22:31N 59°20' E 018°05'0 0.0
2015-Apr-27 21:31N 59°20' E 018°05'0 0.0
2015-Apr-27 20:31N 59°20' E 018°05'0 0.0
2015-Apr-27 19:31N 59°20' E 018°05'0 0.0
2015-Apr-27 18:31N 59°20' E 018°05'0 0.0
2015-Apr-27 17:31N 59°20' E 018°05'0 0.0
2015-Apr-27 16:31N 59°20' E 018°05'0 0.0
2015-Apr-27 15:31N 59°20' E 018°05'0 0.0
2015-Apr-27 14:31N 59°20' E 018°05'0 0.0
2015-Apr-27 13:31N 59°20' E 018°05'0 0.0
2015-Apr-27 12:31N 59°20' E 018°05'0 0.0
2015-Apr-27 11:31N 59°20' E 018°05'0 0.0
2015-Apr-27 10:31N 59°20' E 018°05'0 0.0
2015-Apr-27 09:31N 59°20' E 018°05'0 0.2
2015-Apr-27 08:32N 59°20' E 018°04'5 5.4
2015-Apr-27 07:33N 59°21' E 018°15'  
2015-Apr-24 11:28N 59°21' E 018°15'5 5.5
2015-Apr-24 10:29N 59°20' E 018°04'0 0.0
2015-Apr-24 09:29N 59°20' E 018°04'0 0.0
2015-Apr-24 08:29N 59°20' E 018°04'6 5.8
2015-Apr-24 07:32N 59°22' E 018°15'0 0.0
2015-Apr-22 13:31N 59°21' E 018°15'5 5.4
2015-Apr-22 12:32N 59°20' E 018°05'0 0.0
2015-Apr-22 11:32N 59°20' E 018°05'0 0.0
2015-Apr-22 10:32N 59°20' E 018°05'0 0.0
2015-Apr-22 09:32N 59°20' E 018°05'0 0.0
2015-Apr-22 08:32N 59°20' E 018°05'6 5.5
2015-Apr-22 07:30N 59°22' E 018°15'1 0.0
2015-Apr-20 13:32N 59°21' E 018°14'5 5.0
2015-Apr-20 12:32N 59°20' E 018°05'0 0.0
2015-Apr-20 11:32N 59°20' E 018°05'  
Track history (hours):
 
Tides and Currents Weather Stations Pressure Air Temp Water Temp Dewpoint Dewpoint Depression Visibility Wind Speed Wind Dir Waves Ship Positions

Varmdo

Last reported at 2015-Apr-30 11:32 UTC. Time now 2015-May-03 13:51 UTC.
Position N 59°21' E 018°15'.

Length 38 m; draft 2.5 m.

Type: Passenger vessel. MMSI: 265520390.

Date/timePositionNaut miles runAvg speedWind from/ knotsBaromVisibWave heightAir tempDewpointWater temp
2015-Apr-30 11:32N 59°21' E 018°15'5 5.5
2015-Apr-30 10:33N 59°20' E 018°05'0 0.0
2015-Apr-30 09:33N 59°20' E 018°05'0 0.0
2015-Apr-30 08:33N 59°20' E 018°05'5 5.2
2015-Apr-30 07:32N 59°21' E 018°14'1 0.0
2015-Apr-29 13:33N 59°21' E 018°15'5 5.1
2015-Apr-29 12:31N 59°20' E 018°05'0 0.0
2015-Apr-29 11:31N 59°20' E 018°05'0 0.0
2015-Apr-29 10:31N 59°20' E 018°05'0 0.2
2015-Apr-29 09:31N 59°20' E 018°05'0 0.0
2015-Apr-29 08:28N 59°20' E 018°05'0 0.0
2015-Apr-29 07:31N 59°20' E 018°05'0 0.0
2015-Apr-29 06:31N 59°20' E 018°05'0 0.0
2015-Apr-29 05:31N 59°20' E 018°05'0 0.0
2015-Apr-29 04:31N 59°20' E 018°05'0 0.0
2015-Apr-29 03:31N 59°20' E 018°05'0 0.0
2015-Apr-29 02:31N 59°20' E 018°05'0 0.0
2015-Apr-29 01:31N 59°20' E 018°05'0 0.0
2015-Apr-29 00:31N 59°20' E 018°05'0 0.0
2015-Apr-28 23:31N 59°20' E 018°05'0 0.0
2015-Apr-28 22:31N 59°20' E 018°05'0 0.0
2015-Apr-28 21:31N 59°20' E 018°05'0 0.0
2015-Apr-28 20:28N 59°20' E 018°05'0 0.0
2015-Apr-28 19:28N 59°20' E 018°05'0 0.0
2015-Apr-28 18:31N 59°20' E 018°05'0 0.0
2015-Apr-28 17:31N 59°20' E 018°05'0 0.0
2015-Apr-28 16:31N 59°20' E 018°05'0 0.0
2015-Apr-28 15:28N 59°20' E 018°05'0 0.0
2015-Apr-28 14:31N 59°20' E 018°05'0 0.0
2015-Apr-28 13:31N 59°20' E 018°05'0 0.0
2015-Apr-28 12:28N 59°20' E 018°05'0 0.0
2015-Apr-28 11:31N 59°20' E 018°05'0 0.0
2015-Apr-28 10:31N 59°20' E 018°05'0 0.0
2015-Apr-28 09:31N 59°20' E 018°05'0 0.0
2015-Apr-28 08:31N 59°20' E 018°05'0 0.0
2015-Apr-28 07:31N 59°20' E 018°05'0 0.0
2015-Apr-28 06:31N 59°20' E 018°05'0 0.0
2015-Apr-28 05:31N 59°20' E 018°05'0 0.0
2015-Apr-28 04:31N 59°20' E 018°05'0 0.0
2015-Apr-28 03:31N 59°20' E 018°05'0 0.0
2015-Apr-28 02:31N 59°20' E 018°05'0 0.0
2015-Apr-28 01:31N 59°20' E 018°05'0 0.0
2015-Apr-28 00:31N 59°20' E 018°05'0 0.0
2015-Apr-27 23:31N 59°20' E 018°05'0 0.0
2015-Apr-27 22:31N 59°20' E 018°05'0 0.0
2015-Apr-27 21:31N 59°20' E 018°05'0 0.0
2015-Apr-27 20:31N 59°20' E 018°05'0 0.0
2015-Apr-27 19:31N 59°20' E 018°05'0 0.0
2015-Apr-27 18:31N 59°20' E 018°05'0 0.0
2015-Apr-27 17:31N 59°20' E 018°05'0 0.0
2015-Apr-27 16:31N 59°20' E 018°05'0 0.0
2015-Apr-27 15:31N 59°20' E 018°05'0 0.0
2015-Apr-27 14:31N 59°20' E 018°05'0 0.0
2015-Apr-27 13:31N 59°20' E 018°05'0 0.0
2015-Apr-27 12:31N 59°20' E 018°05'0 0.0
2015-Apr-27 11:31N 59°20' E 018°05'0 0.0
2015-Apr-27 10:31N 59°20' E 018°05'0 0.0
2015-Apr-27 09:31N 59°20' E 018°05'0 0.2
2015-Apr-27 08:32N 59°20' E 018°04'5 5.4
2015-Apr-27 07:33N 59°21' E 018°15'  
2015-Apr-24 11:28N 59°21' E 018°15'5 5.5
2015-Apr-24 10:29N 59°20' E 018°04'0 0.0
2015-Apr-24 09:29N 59°20' E 018°04'0 0.0
2015-Apr-24 08:29N 59°20' E 018°04'6 5.8
2015-Apr-24 07:32N 59°22' E 018°15'0 0.0
2015-Apr-22 13:31N 59°21' E 018°15'5 5.4
2015-Apr-22 12:32N 59°20' E 018°05'0 0.0
2015-Apr-22 11:32N 59°20' E 018°05'0 0.0
2015-Apr-22 10:32N 59°20' E 018°05'0 0.0
2015-Apr-22 09:32N 59°20' E 018°05'0 0.0
2015-Apr-22 08:32N 59°20' E 018°05'6 5.5
2015-Apr-22 07:30N 59°22' E 018°15'1 0.0
2015-Apr-20 13:32N 59°21' E 018°14'5 5.0
2015-Apr-20 12:32N 59°20' E 018°05'0 0.0
2015-Apr-20 11:32N 59°20' E 018°05'  

Dump ship's entire track history